createdAt,value
2018-09-21T00:01:50.427Z,75.30
2018-09-21T00:04:20.500Z,75.30
2018-09-21T00:06:50.367Z,75.20
2018-09-21T00:09:20.055Z,76.00
2018-09-21T00:11:49.814Z,75.90
2018-09-21T00:14:19.531Z,75.90
2018-09-21T00:16:49.219Z,75.90
2018-09-21T00:19:18.899Z,76.20
2018-09-21T00:21:48.791Z,75.40
2018-09-21T00:24:18.463Z,75.10
2018-09-21T00:26:48.175Z,75.70
2018-09-21T00:29:17.859Z,76.10
2018-09-21T00:31:47.838Z,76.00
2018-09-21T00:34:17.591Z,76.80
2018-09-21T00:36:47.307Z,76.80
2018-09-21T00:39:16.971Z,77.60
2018-09-21T00:41:46.644Z,77.60
2018-09-21T00:44:16.303Z,77.90
2018-09-21T00:46:46.347Z,78.30
2018-09-21T00:49:16.088Z,77.00
2018-09-21T00:51:45.846Z,77.10
2018-09-21T00:54:15.543Z,76.70
2018-09-21T00:56:45.219Z,76.80
2018-09-21T00:59:14.900Z,76.40
2018-09-21T01:01:44.589Z,76.70
2018-09-21T01:04:14.250Z,77.70
2018-09-21T01:06:43.947Z,78.10
2018-09-21T01:09:13.647Z,78.50
2018-09-21T01:11:43.346Z,78.70
2018-09-21T01:14:13.068Z,78.90
2018-09-21T01:16:42.818Z,79.40
2018-09-21T01:19:12.510Z,79.20
2018-09-21T01:21:42.184Z,78.80
2018-09-21T01:24:11.864Z,79.00
2018-09-21T01:26:41.531Z,79.60
2018-09-21T01:29:11.276Z,79.80
2018-09-21T01:31:41.308Z,80.40
2018-09-21T01:34:11.014Z,80.30
2018-09-21T01:36:40.679Z,80.60
2018-09-21T01:39:11.094Z,80.30
2018-09-21T01:41:40.770Z,80.70
2018-09-21T01:44:10.547Z,81.20
2018-09-21T01:46:40.211Z,81.20
2018-09-21T01:49:09.923Z,81.40
2018-09-21T01:51:39.698Z,81.50
2018-09-21T01:54:09.408Z,81.10
2018-09-21T01:56:39.115Z,81.20
2018-09-21T01:59:08.783Z,80.90
2018-09-21T02:01:38.436Z,80.60
2018-09-21T02:04:08.410Z,80.40
2018-09-21T02:06:38.098Z,80.80
2018-09-21T02:09:09.413Z,80.10
2018-09-21T02:11:40.221Z,80.40
2018-09-21T02:14:10.437Z,80.20
2018-09-21T02:16:40.147Z,80.70
2018-09-21T02:19:10.347Z,80.70
2018-09-21T02:21:40.083Z,80.50
2018-09-21T02:24:09.791Z,80.80
2018-09-21T02:26:39.455Z,81.10
2018-09-21T02:29:09.187Z,80.80
2018-09-21T02:31:38.872Z,80.90
2018-09-21T02:34:08.623Z,80.90
2018-09-21T02:36:38.340Z,81.00
2018-09-21T02:39:08.972Z,80.90
2018-09-21T02:41:38.668Z,81.20
2018-09-21T02:44:08.408Z,81.10
2018-09-21T02:46:38.124Z,81.30
2018-09-21T02:49:07.832Z,81.80
2018-09-21T02:51:37.511Z,82.70
2018-09-21T02:54:07.586Z,81.70
2018-09-21T02:56:37.971Z,81.70
2018-09-21T02:59:07.760Z,82.70
2018-09-21T03:01:37.459Z,81.80
2018-09-21T03:04:07.179Z,81.90
2018-09-21T03:06:36.872Z,81.60
2018-09-21T03:09:09.343Z,81.90
2018-09-21T03:11:39.044Z,82.00
2018-09-21T03:14:08.756Z,82.00
2018-09-21T03:16:38.441Z,83.40
2018-09-21T03:19:08.179Z,83.00
2018-09-21T03:21:37.847Z,83.20
2018-09-21T03:24:07.885Z,83.50
2018-09-21T03:26:37.579Z,83.60
2018-09-21T03:29:07.296Z,83.90
2018-09-21T03:31:36.971Z,84.30
2018-09-21T03:34:06.720Z,84.40
2018-09-21T03:36:36.410Z,84.40
2018-09-21T03:39:07.791Z,84.20
2018-09-21T03:41:37.805Z,84.60
2018-09-21T03:44:07.515Z,84.70
2018-09-21T03:46:37.505Z,84.90
2018-09-21T03:49:07.265Z,84.20
2018-09-21T03:51:36.967Z,85.00
2018-09-21T03:54:07.031Z,84.60
2018-09-21T03:56:37.300Z,84.70
2018-09-21T03:59:07.307Z,84.70
2018-09-21T04:01:37.067Z,84.80
2018-09-21T04:04:07.223Z,85.50
2018-09-21T04:06:37.088Z,85.10
2018-09-21T04:09:08.804Z,86.00
2018-09-21T04:11:38.633Z,86.10
2018-09-21T04:14:08.322Z,85.00
2018-09-21T04:16:38.031Z,85.80
2018-09-21T04:19:07.720Z,85.70
2018-09-21T04:21:37.439Z,85.30
2018-09-21T04:24:07.703Z,85.40
2018-09-21T04:26:37.416Z,85.90
2018-09-21T04:29:07.123Z,86.00
2018-09-21T04:31:36.815Z,86.20
2018-09-21T04:34:06.525Z,86.00
2018-09-21T04:36:36.215Z,86.60
2018-09-21T04:39:09.924Z,86.70
2018-09-21T04:41:40.170Z,86.50
2018-09-21T04:44:10.979Z,86.60
2018-09-21T04:46:40.704Z,86.70
2018-09-21T04:49:10.367Z,86.60
2018-09-21T04:51:40.095Z,87.20
2018-09-21T04:54:09.815Z,86.80
2018-09-21T04:56:39.511Z,87.20
2018-09-21T04:59:09.171Z,87.90
2018-09-21T05:01:38.855Z,87.00
2018-09-21T05:04:08.531Z,87.20
2018-09-21T05:06:38.276Z,87.50
2018-09-21T05:09:10.697Z,87.20
2018-09-21T05:11:41.211Z,87.30
2018-09-21T05:14:10.915Z,87.30
2018-09-21T05:16:40.590Z,87.80
2018-09-21T05:19:10.320Z,87.70
2018-09-21T05:21:40.004Z,87.60
2018-09-21T05:24:10.430Z,87.50
2018-09-21T05:26:40.136Z,87.10
2018-09-21T05:29:09.791Z,87.40
2018-09-21T05:31:39.511Z,87.50
2018-09-21T05:34:09.210Z,87.80
2018-09-21T05:36:39.513Z,88.10
2018-09-21T05:39:12.503Z,87.90
2018-09-21T05:41:42.334Z,88.10
2018-09-21T05:44:12.299Z,88.30
2018-09-21T05:46:42.446Z,87.20
2018-09-21T05:49:12.110Z,87.30
2018-09-21T05:51:41.950Z,88.10
2018-09-21T05:54:11.623Z,88.30
2018-09-21T05:56:42.055Z,87.90
2018-09-21T05:59:11.720Z,86.80
2018-09-21T06:01:41.426Z,86.20
2018-09-21T06:04:11.096Z,86.50
2018-09-21T06:06:40.862Z,86.70
2018-09-21T06:09:12.375Z,86.00
2018-09-21T06:11:42.723Z,85.80
2018-09-21T06:14:12.815Z,86.80
2018-09-21T06:16:42.530Z,85.80
2018-09-21T06:19:12.207Z,84.90
2018-09-21T06:21:41.894Z,86.20
2018-09-21T06:24:11.567Z,84.60
2018-09-21T06:26:41.272Z,84.20
2018-09-21T06:29:10.933Z,85.00
2018-09-21T06:31:40.623Z,83.90
2018-09-21T06:34:10.274Z,84.10
2018-09-21T06:36:39.979Z,82.80
2018-09-21T06:39:10.922Z,83.10
2018-09-21T06:41:40.591Z,82.90
2018-09-21T06:44:10.355Z,82.90
2018-09-21T06:46:40.030Z,82.70
2018-09-21T06:49:09.698Z,83.00
2018-09-21T06:51:39.379Z,82.50
2018-09-21T06:54:09.052Z,81.60
2018-09-21T06:56:38.734Z,80.30
2018-09-21T06:59:08.506Z,80.80
2018-09-21T07:01:38.272Z,80.20
2018-09-21T07:04:08.103Z,80.00
2018-09-21T07:06:37.811Z,80.60
2018-09-21T07:09:11.876Z,79.90
2018-09-21T07:11:41.943Z,79.10
2018-09-21T07:14:12.325Z,79.20
2018-09-21T07:16:42.699Z,78.20
2018-09-21T07:19:12.790Z,78.50
2018-09-21T07:21:42.611Z,78.60
2018-09-21T07:24:12.342Z,78.00
2018-09-21T07:26:42.006Z,78.70
2018-09-21T07:29:11.707Z,81.20
2018-09-21T07:31:41.767Z,79.30
2018-09-21T07:34:11.487Z,80.30
2018-09-21T07:36:41.197Z,78.60
2018-09-21T07:39:10.886Z,78.80
2018-09-21T07:41:40.531Z,78.30
2018-09-21T07:44:10.226Z,77.80
2018-09-21T07:46:39.895Z,78.30
2018-09-21T07:49:09.583Z,78.60
2018-09-21T07:51:39.300Z,76.90
2018-09-21T07:54:08.975Z,75.60
2018-09-21T07:56:38.934Z,76.00
2018-09-21T07:59:08.632Z,73.00
2018-09-21T08:01:38.322Z,72.60
2018-09-21T08:04:08.221Z,71.00
2018-09-21T08:06:38.099Z,70.00
2018-09-21T08:09:09.209Z,70.90
2018-09-21T08:11:38.963Z,70.40
2018-09-21T08:14:08.921Z,70.10
2018-09-21T08:16:39.024Z,68.00
2018-09-21T08:19:09.091Z,68.20
2018-09-21T08:21:38.814Z,67.80
2018-09-21T08:24:08.495Z,64.10
2018-09-21T08:26:38.219Z,65.00
2018-09-21T08:29:08.104Z,64.50
2018-09-21T08:31:37.772Z,64.10
2018-09-21T08:34:07.506Z,63.00
2018-09-21T08:36:37.203Z,61.90
2018-09-21T08:39:09.290Z,62.90
2018-09-21T08:41:39.542Z,63.70
2018-09-21T08:44:09.612Z,62.80
2018-09-21T08:46:39.655Z,61.40
2018-09-21T08:49:09.362Z,61.20
2018-09-21T08:51:39.076Z,61.60
2018-09-21T08:54:08.755Z,59.70
2018-09-21T08:56:38.407Z,61.50
2018-09-21T08:59:08.115Z,60.10
2018-09-21T09:01:37.786Z,61.10
2018-09-21T09:04:07.659Z,61.60
2018-09-21T09:06:37.323Z,61.00
2018-09-21T09:09:09.418Z,60.60
2018-09-21T09:11:39.857Z,61.10
2018-09-21T09:14:09.538Z,61.00
2018-09-21T09:16:38.924Z,60.60
2018-09-21T09:19:08.618Z,60.80
2018-09-21T09:21:38.315Z,62.00
2018-09-21T09:24:08.051Z,61.10
2018-09-21T09:26:37.726Z,62.50
2018-09-21T09:29:07.435Z,63.10
2018-09-21T09:31:37.195Z,61.40
2018-09-21T09:34:06.622Z,61.80
2018-09-21T09:36:36.000Z,60.80
2018-09-21T09:39:09.143Z,61.40
2018-09-21T09:41:38.547Z,59.80
2018-09-21T09:44:08.006Z,60.10
2018-09-21T09:46:37.683Z,60.80
2018-09-21T09:49:07.514Z,59.00
2018-09-21T09:51:37.643Z,59.10
2018-09-21T09:54:07.333Z,58.90
2018-09-21T09:56:37.011Z,58.00
2018-09-21T09:59:06.565Z,57.60
2018-09-21T10:01:36.235Z,57.20
2018-09-21T10:04:05.900Z,56.70
2018-09-21T10:06:35.600Z,57.70
2018-09-21T10:09:08.902Z,56.60
2018-09-21T10:11:39.111Z,57.00
2018-09-21T10:14:09.087Z,57.70
2018-09-21T10:16:38.772Z,57.40
2018-09-21T10:19:08.439Z,56.10
2018-09-21T10:21:38.147Z,56.70
2018-09-21T10:24:07.555Z,57.30
2018-09-21T10:26:37.515Z,58.20
2018-09-21T10:29:09.124Z,58.10
2018-09-21T10:31:39.394Z,58.10
2018-09-21T10:34:08.766Z,58.80
2018-09-21T10:36:38.151Z,58.50
2018-09-21T10:39:08.128Z,57.70
2018-09-21T10:41:37.815Z,58.10
2018-09-21T10:44:07.513Z,58.70
2018-09-21T10:46:37.208Z,58.40
2018-09-21T10:49:06.975Z,57.60
2018-09-21T10:51:36.656Z,56.60
2018-09-21T10:54:06.355Z,57.20
2018-09-21T10:56:35.745Z,57.00
2018-09-21T10:59:05.783Z,57.00
2018-09-21T11:01:35.328Z,55.70
2018-09-21T11:04:05.580Z,56.50
2018-09-21T11:06:35.003Z,55.90
2018-09-21T11:09:07.686Z,55.60
2018-09-21T11:11:37.408Z,56.40
2018-09-21T11:14:06.800Z,55.90
2018-09-21T11:16:36.543Z,54.70
2018-09-21T11:19:05.915Z,55.10
2018-09-21T11:21:35.635Z,56.20
2018-09-21T11:24:05.319Z,55.60
2018-09-21T11:26:34.716Z,55.40
2018-09-21T11:29:04.489Z,56.00
2018-09-21T11:31:33.919Z,57.20
2018-09-21T11:34:03.375Z,58.10
2018-09-21T11:36:32.779Z,56.50
2018-09-21T11:39:02.192Z,56.80
2018-09-21T11:41:31.627Z,55.80
2018-09-21T11:44:01.004Z,56.60
2018-09-21T11:46:30.448Z,56.70
2018-09-21T11:48:59.835Z,56.00
2018-09-21T11:51:29.227Z,55.40
2018-09-21T11:53:58.985Z,55.90
2018-09-21T11:56:28.403Z,55.60
2018-09-21T11:58:57.835Z,55.40
2018-09-21T12:01:27.234Z,56.00
2018-09-21T12:03:56.611Z,56.00
2018-09-21T12:06:26.049Z,56.60
2018-09-21T12:08:56.679Z,56.00
2018-09-21T12:11:26.079Z,56.50
2018-09-21T12:13:55.516Z,56.50
2018-09-21T12:16:24.932Z,56.10
2018-09-21T12:18:54.313Z,56.10
2018-09-21T12:21:23.707Z,56.10
2018-09-21T12:23:53.095Z,55.60
2018-09-21T12:26:22.878Z,55.60
2018-09-21T12:28:52.251Z,56.40
2018-09-21T12:31:21.704Z,56.80
2018-09-21T12:33:51.535Z,56.70
2018-09-21T12:36:20.961Z,56.70
2018-09-21T12:38:50.564Z,56.80
2018-09-21T12:41:19.955Z,57.40
2018-09-21T12:43:49.347Z,57.50
2018-09-21T12:46:27.335Z,57.30
2018-09-21T12:49:00.560Z,57.70
2018-09-21T12:51:30.001Z,57.60
2018-09-21T12:53:59.379Z,56.90
2018-09-21T12:56:29.147Z,57.00
2018-09-21T12:58:58.728Z,57.20
2018-09-21T13:01:28.095Z,57.10
2018-09-21T13:03:57.523Z,57.40
2018-09-21T13:06:27.145Z,57.30
2018-09-21T13:08:56.704Z,56.70
2018-09-21T13:11:26.053Z,56.60
2018-09-21T13:13:55.686Z,56.70
2018-09-21T13:16:26.069Z,57.00
2018-09-21T13:18:55.791Z,56.70
2018-09-21T13:21:25.182Z,56.00
2018-09-21T13:23:55.748Z,56.40
2018-09-21T13:26:26.027Z,56.90
2018-09-21T13:28:55.459Z,56.60
2018-09-21T13:31:24.867Z,56.20
2018-09-21T13:33:54.259Z,56.60
2018-09-21T13:36:23.984Z,57.80
2018-09-21T13:38:53.355Z,56.40
2018-09-21T13:41:23.399Z,57.40
2018-09-21T13:43:52.832Z,56.70
2018-09-21T13:46:22.311Z,57.30
2018-09-21T13:48:51.709Z,57.20
2018-09-21T13:51:21.139Z,57.80
2018-09-21T13:53:50.820Z,57.10
2018-09-21T13:56:20.480Z,57.90
2018-09-21T13:58:50.131Z,58.40
2018-09-21T14:01:19.790Z,58.50
2018-09-21T14:03:49.160Z,59.10
2018-09-21T14:06:18.871Z,59.10
2018-09-21T14:08:48.245Z,58.60
2018-09-21T14:11:18.023Z,59.20
2018-09-21T14:13:47.462Z,59.40
2018-09-21T14:16:17.127Z,58.70
2018-09-21T14:18:46.715Z,58.80
2018-09-21T14:21:16.460Z,59.00
2018-09-21T14:23:46.102Z,59.50
2018-09-21T14:26:15.876Z,59.40
2018-09-21T14:28:45.591Z,59.40
2018-09-21T14:31:15.255Z,60.00
2018-09-21T14:33:44.934Z,59.60
2018-09-21T14:36:14.592Z,60.00
2018-09-21T14:38:44.365Z,59.00
2018-09-21T14:41:14.055Z,59.00
2018-09-21T14:43:43.442Z,58.90
2018-09-21T14:46:12.795Z,59.10
2018-09-21T14:48:42.503Z,59.10
2018-09-21T14:51:12.287Z,58.70
2018-09-21T14:53:41.984Z,58.40
2018-09-21T14:56:11.680Z,58.70
2018-09-21T14:58:41.378Z,57.90
2018-09-21T15:01:11.078Z,57.30
2018-09-21T15:03:40.852Z,56.90
2018-09-21T15:06:10.907Z,56.30
2018-09-21T15:08:40.664Z,55.30
2018-09-21T15:11:10.424Z,54.80
2018-09-21T15:13:40.391Z,55.40
2018-09-21T15:16:10.378Z,54.90
2018-09-21T15:18:40.051Z,53.70
2018-09-21T15:21:09.536Z,54.20
2018-09-21T15:23:39.243Z,55.40
2018-09-21T15:26:09.212Z,56.20
2018-09-21T15:28:39.238Z,56.40
2018-09-21T15:31:09.746Z,57.00
2018-09-21T15:33:39.761Z,57.70
2018-09-21T15:36:09.487Z,57.20
2018-09-21T15:38:39.183Z,57.30
2018-09-21T15:41:09.178Z,57.40
2018-09-21T15:43:39.247Z,57.40
2018-09-21T15:46:09.067Z,56.90
2018-09-21T15:48:38.752Z,54.40
2018-09-21T15:51:08.806Z,53.60
2018-09-21T15:53:38.475Z,52.80
2018-09-21T15:56:08.291Z,53.80
2018-09-21T15:58:38.160Z,53.60
2018-09-21T16:01:08.137Z,53.70
2018-09-21T16:03:37.550Z,53.40
2018-09-21T16:06:07.615Z,54.10
2018-09-21T16:08:37.563Z,53.50
2018-09-21T16:11:07.624Z,53.80
2018-09-21T16:13:37.562Z,53.80
2018-09-21T16:16:07.275Z,53.40
2018-09-21T16:18:37.051Z,54.00
2018-09-21T16:21:06.877Z,57.30
2018-09-21T16:23:36.977Z,62.70
2018-09-21T16:26:06.839Z,68.60
2018-09-21T16:28:36.833Z,70.60
2018-09-21T16:31:07.612Z,73.40
2018-09-21T16:33:38.623Z,74.30
2018-09-21T16:36:08.941Z,74.80
2018-09-21T16:38:38.611Z,75.60
2018-09-21T16:41:08.467Z,73.40
2018-09-21T16:43:38.180Z,72.70
2018-09-21T16:46:08.771Z,73.20
2018-09-21T16:48:38.509Z,72.80
2018-09-21T16:51:08.440Z,70.70
2018-09-21T16:53:40.008Z,70.30
2018-09-21T16:56:10.914Z,68.70
2018-09-21T16:58:41.314Z,69.90
2018-09-21T17:01:11.512Z,71.40
2018-09-21T17:03:41.714Z,70.40
2018-09-21T17:06:12.805Z,70.30
2018-09-21T17:08:42.919Z,70.80
2018-09-21T17:11:13.026Z,71.10
2018-09-21T17:13:42.828Z,68.90
2018-09-21T17:16:13.223Z,70.00
2018-09-21T17:18:44.090Z,69.40
2018-09-21T17:21:13.892Z,68.90
2018-09-21T17:23:43.715Z,67.20
2018-09-21T17:26:13.426Z,70.30
2018-09-21T17:28:43.294Z,68.60
2018-09-21T17:31:12.998Z,68.10
2018-09-21T17:33:42.655Z,68.00
2018-09-21T17:36:12.339Z,68.50
2018-09-21T17:38:42.026Z,68.10
2018-09-21T17:41:12.054Z,67.70
2018-09-21T17:43:41.790Z,66.20
2018-09-21T17:46:11.455Z,65.80
2018-09-21T17:48:41.146Z,67.00
2018-09-21T17:51:11.035Z,67.20
2018-09-21T17:53:40.738Z,68.10
2018-09-21T17:56:10.458Z,67.30
2018-09-21T17:58:40.131Z,67.70
2018-09-21T18:01:09.811Z,67.10
2018-09-21T18:03:40.080Z,67.50
2018-09-21T18:06:10.667Z,68.20
2018-09-21T18:08:40.353Z,68.00
2018-09-21T18:11:10.035Z,69.20
2018-09-21T18:13:39.747Z,69.40
2018-09-21T18:16:09.611Z,69.80
2018-09-21T18:18:39.463Z,69.90
2018-09-21T18:21:09.197Z,70.40
2018-09-21T18:23:38.889Z,70.50
2018-09-21T18:26:09.047Z,70.60
2018-09-21T18:28:38.970Z,70.90
2018-09-21T18:31:09.046Z,70.40
2018-09-21T18:33:38.779Z,71.20
2018-09-21T18:36:08.784Z,71.20
2018-09-21T18:38:38.518Z,70.90
2018-09-21T18:41:08.244Z,71.10
2018-09-21T18:43:38.974Z,71.70
2018-09-21T18:46:09.063Z,71.60
2018-09-21T18:48:38.771Z,72.10
2018-09-21T18:51:08.482Z,72.60
2018-09-21T18:53:38.182Z,73.50
2018-09-21T18:56:08.004Z,73.50
2018-09-21T18:58:38.133Z,73.80
2018-09-21T19:01:08.020Z,74.00
2018-09-21T19:03:37.728Z,74.60
2018-09-21T19:06:07.662Z,75.30
2018-09-21T19:08:37.439Z,75.30
2018-09-21T19:11:07.210Z,75.30
2018-09-21T19:13:37.390Z,75.90
2018-09-21T19:16:07.175Z,76.40
2018-09-21T19:18:36.868Z,76.40
2018-09-21T19:21:06.566Z,77.00
2018-09-21T19:23:36.295Z,77.20
2018-09-21T19:26:05.959Z,77.60
2018-09-21T19:28:35.689Z,77.70
2018-09-21T19:31:05.366Z,78.30
2018-09-21T19:33:35.116Z,78.40
2018-09-21T19:36:04.918Z,78.90
2018-09-21T19:38:34.661Z,79.40
2018-09-21T19:41:04.574Z,79.40
2018-09-21T19:43:34.278Z,79.30
2018-09-21T19:46:03.972Z,80.00
2018-09-21T19:48:33.785Z,79.50
2018-09-21T19:51:05.416Z,80.00
2018-09-21T19:53:35.108Z,80.00
2018-09-21T19:56:04.807Z,80.40
2018-09-21T19:58:34.475Z,79.90
2018-09-21T20:01:04.194Z,80.10
2018-09-21T20:03:33.839Z,80.30
2018-09-21T20:06:03.538Z,80.20
2018-09-21T20:08:33.287Z,80.00
2018-09-21T20:11:03.007Z,80.10
2018-09-21T20:13:32.875Z,80.00
2018-09-21T20:16:02.594Z,80.10
2018-09-21T20:18:32.325Z,79.90
2018-09-21T20:21:02.036Z,79.80
2018-09-21T20:23:31.702Z,80.10
2018-09-21T20:26:01.388Z,79.50
2018-09-21T20:28:31.070Z,79.60
2018-09-21T20:31:06.550Z,79.40
2018-09-21T20:33:37.038Z,79.30
2018-09-21T20:36:06.707Z,79.50
2018-09-21T20:38:36.379Z,79.30
2018-09-21T20:41:06.100Z,79.10
2018-09-21T20:43:35.775Z,79.30
2018-09-21T20:46:05.480Z,78.50
2018-09-21T20:48:35.135Z,79.20
2018-09-21T20:51:04.828Z,79.00
2018-09-21T20:53:34.495Z,79.20
2018-09-21T20:56:04.551Z,79.10
2018-09-21T20:58:34.218Z,78.80
2018-09-21T21:01:03.966Z,79.20
2018-09-21T21:03:33.639Z,79.00
2018-09-21T21:06:03.424Z,79.00
2018-09-21T21:08:33.153Z,79.30
2018-09-21T21:11:02.898Z,79.10
2018-09-21T21:13:32.564Z,78.40
2018-09-21T21:16:02.257Z,78.60
2018-09-21T21:18:31.927Z,78.40
2018-09-21T21:21:01.616Z,78.80
2018-09-21T21:23:31.291Z,78.10
2018-09-21T21:26:01.015Z,78.30
2018-09-21T21:28:30.730Z,78.20
2018-09-21T21:31:00.459Z,77.70
2018-09-21T21:33:30.207Z,77.60
2018-09-21T21:35:59.911Z,77.90
2018-09-21T21:38:29.615Z,77.70
2018-09-21T21:40:59.304Z,77.00
2018-09-21T21:43:28.985Z,77.10
2018-09-21T21:45:58.685Z,77.00
2018-09-21T21:48:28.392Z,77.00
2018-09-21T21:50:58.150Z,76.90
2018-09-21T21:53:27.810Z,76.80
2018-09-21T21:55:57.527Z,76.70
2018-09-21T21:58:27.207Z,76.90
2018-09-21T22:01:02.514Z,77.20
2018-09-21T22:03:32.210Z,76.60
2018-09-21T22:06:01.922Z,76.60
2018-09-21T22:08:31.606Z,76.20
2018-09-21T22:11:05.623Z,76.40
2018-09-21T22:13:41.006Z,76.60
2018-09-21T22:16:10.734Z,76.30
2018-09-21T22:18:40.418Z,76.20
2018-09-21T22:21:10.125Z,76.20
2018-09-21T22:23:39.847Z,76.00
2018-09-21T22:26:09.503Z,76.00
2018-09-21T22:28:39.171Z,75.60
2018-09-21T22:31:09.146Z,75.50
2018-09-21T22:33:38.840Z,75.40
2018-09-21T22:36:08.715Z,75.80
2018-09-21T22:38:38.440Z,75.80
2018-09-21T22:41:08.108Z,76.10
2018-09-21T22:43:37.790Z,75.80
2018-09-21T22:46:07.555Z,76.00
2018-09-21T22:48:37.336Z,75.70
2018-09-21T22:51:07.010Z,75.30
2018-09-21T22:53:36.776Z,75.70
2018-09-21T22:56:06.642Z,75.30
2018-09-21T22:58:36.555Z,75.90
2018-09-21T23:01:06.709Z,75.90
2018-09-21T23:03:36.435Z,75.70
2018-09-21T23:06:06.522Z,75.40
2018-09-21T23:08:36.204Z,76.00
2018-09-21T23:11:05.886Z,75.70
2018-09-21T23:13:35.559Z,76.10
2018-09-21T23:16:05.255Z,75.60
2018-09-21T23:18:34.954Z,75.70
2018-09-21T23:21:04.676Z,75.80
2018-09-21T23:23:34.378Z,76.20
2018-09-21T23:26:04.090Z,75.80
2018-09-21T23:28:33.791Z,76.10
2018-09-21T23:31:03.478Z,76.20
2018-09-21T23:33:33.224Z,76.40
2018-09-21T23:36:02.886Z,76.20
2018-09-21T23:38:32.602Z,76.00
2018-09-21T23:41:02.277Z,76.10
2018-09-21T23:43:31.973Z,76.00
2018-09-21T23:46:01.639Z,76.30
2018-09-21T23:48:31.337Z,76.40
2018-09-21T23:51:01.038Z,76.00
2018-09-21T23:53:30.772Z,76.10
2018-09-21T23:56:00.473Z,76.60
2018-09-21T23:58:30.184Z,76.80
